Terminal Aerodrome Forecast
Issued by NWS Sioux Falls, SD

Home | Current Version | Previous Version | Graphics & Text | Print | Product List | Glossary On
Versions: 1 2 3 4 5 6 7 8 9 10 11 12 13 14 15 16 17
000
FTUS43 KFSD 271700
TAFFSD
TAF
KFSD 271720Z 2718/2818 12008KT P6SM BKN030 BKN060
     FM280300 13006KT 5SM -TSRA BKN010CB
     FM281500 13008KT 6SM -RA BR BKN007=

USA.gov is the U.S. government's official web portal to all federal, state and local government web resources and services.